sensor_id;sensor_type;location;lat;lon;timestamp;P1;durP1;ratioP1;P2;durP2;ratioP2
3831;SDS011;12460;42.662;23.288;2023-05-20T00:04:17;13.00;;;9.93;;
3831;SDS011;12460;42.662;23.288;2023-05-20T00:19:21;11.27;;;9.93;;
3831;SDS011;12460;42.662;23.288;2023-05-20T00:34:26;14.70;;;10.10;;
3831;SDS011;12460;42.662;23.288;2023-05-20T00:49:30;10.37;;;8.50;;
3831;SDS011;12460;42.662;23.288;2023-05-20T01:04:34;11.93;;;9.57;;
3831;SDS011;12460;42.662;23.288;2023-05-20T01:19:43;11.73;;;9.60;;
3831;SDS011;12460;42.662;23.288;2023-05-20T01:34:49;11.80;;;9.57;;
3831;SDS011;12460;42.662;23.288;2023-05-20T01:49:56;11.07;;;8.60;;
3831;SDS011;12460;42.662;23.288;2023-05-20T02:05:02;11.20;;;8.90;;
3831;SDS011;12460;42.662;23.288;2023-05-20T02:20:07;11.77;;;9.40;;
3831;SDS011;12460;42.662;23.288;2023-05-20T02:35:12;11.60;;;9.23;;
3831;SDS011;12460;42.662;23.288;2023-05-20T02:50:18;13.13;;;8.20;;
3831;SDS011;12460;42.662;23.288;2023-05-20T03:05:23;9.93;;;8.93;;
3831;SDS011;12460;42.662;23.288;2023-05-20T03:20:33;9.73;;;8.53;;
3831;SDS011;12460;42.662;23.288;2023-05-20T03:35:58;15.17;;;9.83;;
3831;SDS011;12460;42.662;23.288;2023-05-20T03:51:02;20.47;;;14.73;;
3831;SDS011;12460;42.662;23.288;2023-05-20T04:06:08;11.73;;;8.70;;
3831;SDS011;12460;42.662;23.288;2023-05-20T04:21:12;12.17;;;10.87;;
3831;SDS011;12460;42.662;23.288;2023-05-20T04:36:17;11.27;;;9.90;;
3831;SDS011;12460;42.662;23.288;2023-05-20T04:51:23;11.63;;;10.53;;
3831;SDS011;12460;42.662;23.288;2023-05-20T05:06:27;12.93;;;11.63;;
3831;SDS011;12460;42.662;23.288;2023-05-20T05:21:33;15.17;;;11.90;;
3831;SDS011;12460;42.662;23.288;2023-05-20T05:36:38;12.97;;;10.40;;
3831;SDS011;12460;42.662;23.288;2023-05-20T05:51:43;15.33;;;11.20;;
3831;SDS011;12460;42.662;23.288;2023-05-20T06:06:48;12.00;;;10.63;;
3831;SDS011;12460;42.662;23.288;2023-05-20T06:21:55;12.43;;;11.13;;
3831;SDS011;12460;42.662;23.288;2023-05-20T06:37:00;11.60;;;10.43;;
3831;SDS011;12460;42.662;23.288;2023-05-20T06:52:05;9.10;;;8.20;;
3831;SDS011;12460;42.662;23.288;2023-05-20T07:07:10;9.00;;;8.10;;
3831;SDS011;12460;42.662;23.288;2023-05-20T07:22:21;9.33;;;7.60;;
3831;SDS011;12460;42.662;23.288;2023-05-20T07:37:31;8.17;;;7.40;;
3831;SDS011;12460;42.662;23.288;2023-05-20T07:52:38;8.00;;;7.20;;
3831;SDS011;12460;42.662;23.288;2023-05-20T08:07:58;8.83;;;7.93;;
3831;SDS011;12460;42.662;23.288;2023-05-20T08:23:12;9.23;;;8.30;;
3831;SDS011;12460;42.662;23.288;2023-05-20T08:38:18;8.43;;;7.63;;
3831;SDS011;12460;42.662;23.288;2023-05-20T08:53:23;8.73;;;7.90;;
3831;SDS011;12460;42.662;23.288;2023-05-20T09:08:28;8.00;;;7.30;;
3831;SDS011;12460;42.662;23.288;2023-05-20T09:23:36;8.83;;;7.97;;
3831;SDS011;12460;42.662;23.288;2023-05-20T09:38:41;9.83;;;8.83;;
3831;SDS011;12460;42.662;23.288;2023-05-20T09:53:45;8.90;;;8.00;;
3831;SDS011;12460;42.662;23.288;2023-05-20T10:24:27;9.43;;;8.53;;
3831;SDS011;12460;42.662;23.288;2023-05-20T10:39:35;8.13;;;7.27;;
3831;SDS011;12460;42.662;23.288;2023-05-20T10:54:44;6.50;;;6.00;;
3831;SDS011;12460;42.662;23.288;2023-05-20T11:09:54;7.50;;;6.90;;
3831;SDS011;12460;42.662;23.288;2023-05-20T11:25:03;8.27;;;7.47;;
3831;SDS011;12460;42.662;23.288;2023-05-20T11:40:09;9.33;;;7.90;;
3831;SDS011;12460;42.662;23.288;2023-05-20T11:55:15;8.70;;;7.53;;
3831;SDS011;12460;42.662;23.288;2023-05-20T12:10:20;8.67;;;7.87;;
3831;SDS011;12460;42.662;23.288;2023-05-20T12:25:25;9.07;;;7.50;;
3831;SDS011;12460;42.662;23.288;2023-05-20T12:40:30;6.03;;;5.43;;
3831;SDS011;12460;42.662;23.288;2023-05-20T12:55:35;11.53;;;5.43;;
3831;SDS011;12460;42.662;23.288;2023-05-20T13:10:40;7.40;;;5.60;;
3831;SDS011;12460;42.662;23.288;2023-05-20T13:25:44;6.30;;;5.37;;
3831;SDS011;12460;42.662;23.288;2023-05-20T13:40:48;6.50;;;5.90;;
3831;SDS011;12460;42.662;23.288;2023-05-20T13:55:52;6.53;;;6.00;;
3831;SDS011;12460;42.662;23.288;2023-05-20T14:10:56;7.07;;;6.20;;
3831;SDS011;12460;42.662;23.288;2023-05-20T14:26:01;8.57;;;7.03;;
3831;SDS011;12460;42.662;23.288;2023-05-20T14:41:06;6.63;;;6.13;;
3831;SDS011;12460;42.662;23.288;2023-05-20T14:56:10;8.70;;;7.80;;
3831;SDS011;12460;42.662;23.288;2023-05-20T15:11:15;8.80;;;7.47;;
3831;SDS011;12460;42.662;23.288;2023-05-20T15:26:20;8.93;;;8.13;;
3831;SDS011;12460;42.662;23.288;2023-05-20T15:41:25;9.90;;;6.80;;
3831;SDS011;12460;42.662;23.288;2023-05-20T15:56:29;7.00;;;6.30;;
3831;SDS011;12460;42.662;23.288;2023-05-20T16:11:34;7.93;;;7.07;;
3831;SDS011;12460;42.662;23.288;2023-05-20T16:26:39;8.83;;;8.03;;
3831;SDS011;12460;42.662;23.288;2023-05-20T16:41:44;8.73;;;7.83;;
3831;SDS011;12460;42.662;23.288;2023-05-20T16:56:49;8.63;;;7.50;;
3831;SDS011;12460;42.662;23.288;2023-05-20T17:11:54;8.07;;;7.07;;
3831;SDS011;12460;42.662;23.288;2023-05-20T17:26:58;10.17;;;6.50;;
3831;SDS011;12460;42.662;23.288;2023-05-20T17:42:04;9.00;;;6.70;;
3831;SDS011;12460;42.662;23.288;2023-05-20T17:57:08;7.37;;;6.70;;
3831;SDS011;12460;42.662;23.288;2023-05-20T18:12:13;8.90;;;6.73;;
3831;SDS011;12460;42.662;23.288;2023-05-20T18:27:18;8.80;;;7.20;;
3831;SDS011;12460;42.662;23.288;2023-05-20T18:42:23;11.70;;;8.20;;
3831;SDS011;12460;42.662;23.288;2023-05-20T18:57:28;7.87;;;7.07;;
3831;SDS011;12460;42.662;23.288;2023-05-20T19:12:33;9.10;;;7.77;;
3831;SDS011;12460;42.662;23.288;2023-05-20T19:27:37;9.17;;;8.10;;
3831;SDS011;12460;42.662;23.288;2023-05-20T19:42:42;9.13;;;8.23;;
3831;SDS011;12460;42.662;23.288;2023-05-20T19:57:46;9.80;;;8.63;;
3831;SDS011;12460;42.662;23.288;2023-05-20T20:12:55;10.33;;;7.90;;
3831;SDS011;12460;42.662;23.288;2023-05-20T20:28:00;8.83;;;7.97;;
3831;SDS011;12460;42.662;23.288;2023-05-20T20:43:05;14.20;;;9.23;;
3831;SDS011;12460;42.662;23.288;2023-05-20T20:58:10;10.40;;;9.30;;
3831;SDS011;12460;42.662;23.288;2023-05-20T21:13:17;10.57;;;9.00;;
3831;SDS011;12460;42.662;23.288;2023-05-20T21:28:21;14.07;;;9.50;;
3831;SDS011;12460;42.662;23.288;2023-05-20T21:43:26;11.27;;;9.33;;
3831;SDS011;12460;42.662;23.288;2023-05-20T21:58:31;11.40;;;10.13;;
3831;SDS011;12460;42.662;23.288;2023-05-20T22:13:36;14.13;;;11.30;;
3831;SDS011;12460;42.662;23.288;2023-05-20T22:28:45;12.80;;;11.23;;
3831;SDS011;12460;42.662;23.288;2023-05-20T22:43:50;15.03;;;10.53;;
3831;SDS011;12460;42.662;23.288;2023-05-20T22:58:55;10.97;;;9.33;;
3831;SDS011;12460;42.662;23.288;2023-05-20T23:14:00;11.63;;;10.47;;
3831;SDS011;12460;42.662;23.288;2023-05-20T23:29:05;13.43;;;10.40;;
3831;SDS011;12460;42.662;23.288;2023-05-20T23:44:11;13.60;;;9.57;;
3831;SDS011;12460;42.662;23.288;2023-05-20T23:59:14;12.33;;;10.00;;
